createdAt,value
2022-12-25T00:03:18.203Z,7.70
2022-12-25T00:08:20.436Z,7.60
2022-12-25T00:13:22.618Z,7.61
2022-12-25T00:18:25.067Z,7.72
2022-12-25T00:23:27.898Z,7.69
2022-12-25T00:28:30.482Z,7.76
2022-12-25T00:33:35.766Z,8.21
2022-12-25T00:38:39.812Z,8.38
2022-12-25T00:43:42.329Z,8.51
2022-12-25T00:48:47.598Z,8.53
2022-12-25T00:53:49.736Z,8.41
2022-12-25T00:58:51.892Z,8.32
2022-12-25T01:03:55.007Z,8.06
2022-12-25T01:09:17.827Z,7.91
2022-12-25T01:14:19.929Z,7.79
2022-12-25T01:19:22.066Z,7.84
2022-12-25T01:24:24.265Z,7.75
2022-12-25T01:29:26.444Z,7.70
2022-12-25T01:34:28.796Z,7.55
2022-12-25T01:39:31.494Z,7.26
2022-12-25T01:44:36.371Z,7.17
2022-12-25T01:49:40.870Z,7.04
2022-12-25T01:54:52.727Z,7.29
2022-12-25T01:59:57.701Z,7.32
2022-12-25T02:05:08.442Z,7.44
2022-12-25T02:10:12.912Z,7.17
2022-12-25T02:15:20.847Z,7.20
2022-12-25T02:20:55.904Z,6.94
2022-12-25T02:26:35.544Z,6.89
2022-12-25T02:31:59.429Z,7.03
2022-12-25T02:37:12.502Z,7.07
2022-12-25T02:42:45.412Z,7.12
2022-12-25T02:48:06.175Z,7.10
2022-12-25T02:53:45.491Z,7.12
2022-12-25T02:59:07.386Z,6.91
2022-12-25T03:04:32.112Z,7.05
2022-12-25T03:10:00.852Z,6.90
2022-12-25T03:15:24.549Z,7.08
2022-12-25T03:20:45.677Z,6.99
2022-12-25T03:26:06.510Z,6.70
2022-12-25T03:31:21.501Z,6.90
2022-12-25T03:37:00.034Z,6.91
2022-12-25T03:42:24.287Z,6.67
2022-12-25T03:47:51.958Z,6.40
2022-12-25T03:53:15.037Z,6.45
2022-12-25T03:58:41.167Z,6.44
2022-12-25T04:04:02.303Z,6.59
2022-12-25T04:09:23.315Z,6.55
2022-12-25T04:14:44.216Z,6.53
2022-12-25T04:20:04.799Z,6.60
2022-12-25T04:25:26.061Z,6.63
2022-12-25T04:31:03.503Z,6.72
2022-12-25T04:36:12.526Z,6.57
2022-12-25T04:41:14.872Z,6.76
2022-12-25T04:46:17.052Z,6.63
2022-12-25T04:51:21.695Z,6.52
2022-12-25T04:56:23.905Z,6.56
2022-12-25T05:01:26.161Z,6.38
2022-12-25T05:06:28.452Z,6.10
2022-12-25T05:11:30.693Z,5.78
2022-12-25T05:16:32.853Z,5.44
2022-12-25T05:21:35.049Z,5.26
2022-12-25T05:26:37.178Z,4.96
2022-12-25T05:31:39.377Z,4.94
2022-12-25T05:36:41.561Z,4.81
2022-12-25T05:41:43.783Z,5.01
2022-12-25T05:46:46.051Z,4.86
2022-12-25T05:51:48.313Z,4.78
2022-12-25T05:56:50.560Z,5.03
2022-12-25T06:01:52.765Z,5.04
2022-12-25T06:06:54.950Z,4.62
2022-12-25T06:11:57.138Z,4.51
2022-12-25T06:16:59.330Z,4.39
2022-12-25T06:22:01.582Z,4.46
2022-12-25T06:27:03.877Z,4.39
2022-12-25T06:32:06.094Z,4.19
2022-12-25T06:37:08.360Z,4.17
2022-12-25T06:42:10.544Z,4.24
2022-12-25T06:47:13.435Z,4.48
2022-12-25T06:52:15.604Z,4.32
2022-12-25T06:57:19.104Z,4.13
2022-12-25T07:02:23.363Z,4.23
2022-12-25T07:07:25.645Z,4.23
2022-12-25T07:12:27.901Z,4.53
2022-12-25T07:17:30.045Z,4.72
2022-12-25T07:22:32.348Z,4.84
2022-12-25T07:27:34.594Z,5.05
2022-12-25T07:32:36.747Z,5.06
2022-12-25T07:37:39.214Z,5.32
2022-12-25T07:42:41.342Z,5.32
2022-12-25T07:47:43.755Z,5.34
2022-12-25T07:52:47.070Z,5.34
2022-12-25T07:57:49.273Z,5.46
2022-12-25T08:02:51.693Z,5.85
2022-12-25T08:07:57.689Z,6.42
2022-12-25T08:12:59.953Z,6.40
2022-12-25T08:18:02.142Z,6.50
2022-12-25T08:23:05.096Z,6.29
2022-12-25T08:28:07.390Z,6.24
2022-12-25T08:33:10.053Z,6.51
2022-12-25T08:38:12.537Z,6.75
2022-12-25T08:43:14.745Z,6.50
2022-12-25T08:48:16.937Z,6.20
2022-12-25T08:53:20.269Z,6.57
2022-12-25T08:58:25.634Z,6.90
2022-12-25T09:03:28.108Z,6.79
2022-12-25T09:08:30.381Z,7.03
2022-12-25T09:13:32.919Z,7.54
2022-12-25T09:18:35.618Z,7.77
2022-12-25T09:23:40.824Z,7.97
2022-12-25T09:28:50.176Z,8.35
2022-12-25T09:33:58.087Z,8.39
2022-12-25T09:39:00.317Z,9.21
2022-12-25T09:44:15.244Z,9.75
2022-12-25T09:49:49.262Z,10.27
2022-12-25T09:55:12.475Z,10.50
2022-12-25T10:00:24.041Z,11.10
2022-12-25T10:05:58.643Z,11.92
2022-12-25T10:11:06.673Z,18.97
2022-12-25T10:16:52.331Z,22.94
2022-12-25T10:22:03.203Z,23.65
2022-12-25T10:27:30.013Z,19.30
2022-12-25T10:32:33.195Z,18.65
2022-12-25T10:37:35.433Z,21.61
2022-12-25T10:42:43.984Z,15.64
2022-12-25T10:47:58.558Z,17.57
2022-12-25T10:58:44.153Z,25.45
2022-12-25T11:03:53.760Z,30.10
2022-12-25T11:09:08.655Z,30.09
2022-12-25T11:14:29.290Z,31.09
2022-12-25T11:19:41.793Z,31.22
2022-12-25T11:24:45.285Z,31.40
2022-12-25T11:29:53.955Z,34.33
2022-12-25T11:34:57.994Z,32.94
2022-12-25T11:40:00.385Z,35.88
2022-12-25T11:45:17.529Z,35.18
2022-12-25T11:50:25.833Z,34.64
2022-12-25T11:55:33.660Z,30.70
2022-12-25T12:00:36.846Z,31.91
2022-12-25T12:05:45.404Z,29.94
2022-12-25T12:10:56.518Z,27.87
2022-12-25T12:15:58.902Z,24.63
2022-12-25T12:21:16.486Z,24.03
2022-12-25T12:26:30.757Z,23.74
2022-12-25T12:31:45.708Z,22.39
2022-12-25T12:36:49.981Z,23.69
2022-12-25T12:41:52.871Z,23.06
2022-12-25T12:46:57.347Z,17.99
2022-12-25T12:52:22.515Z,15.94
2022-12-25T12:57:32.754Z,15.41
2022-12-25T13:02:41.042Z,15.69
2022-12-25T13:07:58.273Z,15.12
2022-12-25T13:13:12.580Z,14.68
2022-12-25T13:18:15.416Z,14.36
2022-12-25T13:23:30.332Z,14.12
2022-12-25T13:28:35.451Z,14.40
2022-12-25T13:33:38.461Z,14.48
2022-12-25T13:38:48.024Z,14.15
2022-12-25T13:43:58.580Z,13.96
2022-12-25T13:49:01.506Z,13.92
2022-12-25T13:54:07.395Z,13.88
2022-12-25T13:59:16.315Z,13.54
2022-12-25T14:04:23.695Z,13.35
2022-12-25T14:09:26.115Z,13.14
2022-12-25T14:14:29.727Z,13.31
2022-12-25T14:19:34.318Z,13.89
2022-12-25T14:24:39.514Z,12.97
2022-12-25T14:29:44.727Z,12.73
2022-12-25T14:34:50.980Z,12.57
2022-12-25T14:40:05.334Z,12.27
2022-12-25T14:45:30.708Z,12.15
2022-12-25T14:50:41.112Z,11.90
2022-12-25T14:55:48.208Z,11.98
2022-12-25T15:01:01.903Z,11.96
2022-12-25T15:06:06.438Z,12.02
2022-12-25T15:11:09.036Z,11.86
2022-12-25T15:16:22.376Z,11.55
2022-12-25T15:21:44.590Z,11.11
2022-12-25T15:26:47.013Z,10.85
2022-12-25T15:31:49.928Z,10.57
2022-12-25T15:36:53.008Z,10.48
2022-12-25T15:47:37.293Z,10.66
2022-12-25T15:52:39.590Z,10.69
2022-12-25T15:57:43.730Z,10.38
2022-12-25T16:02:48.954Z,10.00
2022-12-25T16:07:51.418Z,10.05
2022-12-25T16:12:53.685Z,10.29
2022-12-25T16:17:58.320Z,10.37
2022-12-25T16:23:00.564Z,10.62
2022-12-25T16:28:03.789Z,10.73
2022-12-25T16:33:06.857Z,10.81
2022-12-25T16:38:09.239Z,10.73
2022-12-25T16:43:11.478Z,10.81
2022-12-25T16:48:13.978Z,10.76
2022-12-25T16:53:16.479Z,10.74
2022-12-25T16:58:18.681Z,10.68
2022-12-25T17:03:21.571Z,10.62
2022-12-25T17:08:23.789Z,10.55
2022-12-25T17:13:26.054Z,10.51
2022-12-25T17:18:29.415Z,10.36
2022-12-25T17:23:31.640Z,10.36
2022-12-25T17:28:34.861Z,10.41
2022-12-25T17:33:38.834Z,10.63
2022-12-25T17:38:41.412Z,10.47
2022-12-25T17:43:45.810Z,10.66
2022-12-25T17:48:50.275Z,10.43
2022-12-25T17:53:56.685Z,10.18
2022-12-25T17:59:03.606Z,9.76
2022-12-25T18:04:07.182Z,9.81
2022-12-25T18:09:11.347Z,9.85
2022-12-25T18:14:18.358Z,9.62
2022-12-25T18:19:20.925Z,9.52
2022-12-25T18:24:23.148Z,9.41
2022-12-25T18:29:25.745Z,9.04
2022-12-25T18:34:28.078Z,9.39
2022-12-25T18:39:31.948Z,9.77
2022-12-25T18:44:34.583Z,9.76
2022-12-25T18:49:38.405Z,9.69
2022-12-25T18:54:41.062Z,9.69
2022-12-25T18:59:43.544Z,9.80
2022-12-25T19:04:45.925Z,9.96
2022-12-25T19:09:49.091Z,10.05
2022-12-25T19:14:51.827Z,10.45
2022-12-25T19:19:54.144Z,10.39
2022-12-25T19:24:59.293Z,10.36
2022-12-25T19:30:05.496Z,10.31
2022-12-25T19:35:08.405Z,10.30
2022-12-25T19:40:11.580Z,10.28
2022-12-25T19:45:14.566Z,10.26
2022-12-25T19:50:16.900Z,10.24
2022-12-25T19:55:20.484Z,10.38
2022-12-25T20:00:22.790Z,10.27
2022-12-25T20:05:24.999Z,10.45
2022-12-25T20:10:27.382Z,10.56
2022-12-25T20:15:29.665Z,10.60
2022-12-25T20:20:32.285Z,10.60
2022-12-25T20:25:44.545Z,10.56
2022-12-25T20:30:46.899Z,10.65
2022-12-25T20:35:50.292Z,10.64
2022-12-25T20:46:30.965Z,10.56
2022-12-25T20:51:33.626Z,10.45
2022-12-25T20:56:36.917Z,10.31
2022-12-25T21:01:39.168Z,10.37
2022-12-25T21:06:41.599Z,10.31
2022-12-25T21:11:43.870Z,10.40
2022-12-25T21:16:46.278Z,10.44
2022-12-25T21:21:51.819Z,10.40
2022-12-25T21:26:54.106Z,10.42
2022-12-25T21:32:14.969Z,10.50
2022-12-25T21:37:17.464Z,10.69
2022-12-25T21:42:19.672Z,11.14
2022-12-25T21:47:59.688Z,11.19
2022-12-25T21:52:52.653Z,11.27
2022-12-25T21:58:02.351Z,11.11
2022-12-25T22:03:35.649Z,10.99
2022-12-25T22:09:52.083Z,10.58
2022-12-25T22:15:35.845Z,10.54
2022-12-25T22:20:50.501Z,10.43
2022-12-25T22:25:53.027Z,10.69
2022-12-25T22:31:04.851Z,10.81
2022-12-25T22:36:57.090Z,10.65
2022-12-25T22:42:31.951Z,10.26
2022-12-25T22:47:36.953Z,10.49
2022-12-25T22:53:48.296Z,10.55
2022-12-25T22:59:01.419Z,10.31
2022-12-25T23:04:04.270Z,10.29
2022-12-25T23:09:08.732Z,10.22
2022-12-25T23:14:33.271Z,10.28
2022-12-25T23:19:54.031Z,10.23
2022-12-25T23:25:16.056Z,10.26
2022-12-25T23:30:18.313Z,10.16
2022-12-25T23:35:20.582Z,10.13
2022-12-25T23:40:22.826Z,10.07
2022-12-25T23:45:24.942Z,10.01
2022-12-25T23:50:27.201Z,9.84
2022-12-25T23:55:29.345Z,9.61
